sensor_id;sensor_type;location;lat;lon;timestamp;temperature;humidity
20929;DHT22;21895;47.072;15.132;2023-05-07T00:01:24;15.30;99.90
20929;DHT22;21895;47.072;15.132;2023-05-07T00:03:50;15.20;99.90
20929;DHT22;21895;47.072;15.132;2023-05-07T00:06:17;15.20;99.90
20929;DHT22;21895;47.072;15.132;2023-05-07T00:08:44;15.20;99.90
20929;DHT22;21895;47.072;15.132;2023-05-07T00:11:10;15.20;99.90
20929;DHT22;21895;47.072;15.132;2023-05-07T00:13:37;15.10;99.90
20929;DHT22;21895;47.072;15.132;2023-05-07T00:16:04;15.00;99.90
20929;DHT22;21895;47.072;15.132;2023-05-07T00:18:31;15.00;99.90
20929;DHT22;21895;47.072;15.132;2023-05-07T00:20:57;15.00;99.90
20929;DHT22;21895;47.072;15.132;2023-05-07T00:23:24;14.90;99.90
20929;DHT22;21895;47.072;15.132;2023-05-07T00:25:50;14.90;99.90
20929;DHT22;21895;47.072;15.132;2023-05-07T00:28:17;14.80;99.90
20929;DHT22;21895;47.072;15.132;2023-05-07T00:30:43;14.70;99.90
20929;DHT22;21895;47.072;15.132;2023-05-07T00:33:10;14.60;99.90
20929;DHT22;21895;47.072;15.132;2023-05-07T00:35:36;14.60;99.90
20929;DHT22;21895;47.072;15.132;2023-05-07T00:38:03;14.60;99.90
20929;DHT22;21895;47.072;15.132;2023-05-07T00:40:29;14.60;99.90
20929;DHT22;21895;47.072;15.132;2023-05-07T00:42:56;14.50;99.90
20929;DHT22;21895;47.072;15.132;2023-05-07T00:45:27;14.50;99.90
20929;DHT22;21895;47.072;15.132;2023-05-07T00:47:58;14.40;99.90
20929;DHT22;21895;47.072;15.132;2023-05-07T00:50:26;14.40;99.90
20929;DHT22;21895;47.072;15.132;2023-05-07T00:52:54;14.20;99.90
20929;DHT22;21895;47.072;15.132;2023-05-07T00:55:22;14.20;99.90
20929;DHT22;21895;47.072;15.132;2023-05-07T00:57:50;14.20;99.90
20929;DHT22;21895;47.072;15.132;2023-05-07T01:00:17;14.10;99.90
20929;DHT22;21895;47.072;15.132;2023-05-07T01:02:44;14.00;99.90
20929;DHT22;21895;47.072;15.132;2023-05-07T01:05:15;14.10;99.90
20929;DHT22;21895;47.072;15.132;2023-05-07T01:07:44;14.10;99.90
20929;DHT22;21895;47.072;15.132;2023-05-07T01:10:12;14.00;99.90
20929;DHT22;21895;47.072;15.132;2023-05-07T01:12:40;14.00;99.90
20929;DHT22;21895;47.072;15.132;2023-05-07T01:15:09;14.00;99.90
20929;DHT22;21895;47.072;15.132;2023-05-07T01:17:37;13.80;99.90
20929;DHT22;21895;47.072;15.132;2023-05-07T01:20:06;13.70;99.90
20929;DHT22;21895;47.072;15.132;2023-05-07T01:22:35;13.70;99.90
20929;DHT22;21895;47.072;15.132;2023-05-07T01:25:03;13.70;99.90
20929;DHT22;21895;47.072;15.132;2023-05-07T01:27:31;13.50;99.90
20929;DHT22;21895;47.072;15.132;2023-05-07T01:29:59;13.50;99.90
20929;DHT22;21895;47.072;15.132;2023-05-07T01:32:42;13.40;99.90
20929;DHT22;21895;47.072;15.132;2023-05-07T01:35:19;13.50;99.90
20929;DHT22;21895;47.072;15.132;2023-05-07T01:37:48;13.50;99.90
20929;DHT22;21895;47.072;15.132;2023-05-07T01:40:16;13.50;99.90
20929;DHT22;21895;47.072;15.132;2023-05-07T01:42:43;13.40;99.90
20929;DHT22;21895;47.072;15.132;2023-05-07T01:45:10;13.40;99.90
20929;DHT22;21895;47.072;15.132;2023-05-07T01:47:37;13.40;99.90
20929;DHT22;21895;47.072;15.132;2023-05-07T01:50:09;13.40;99.90
20929;DHT22;21895;47.072;15.132;2023-05-07T01:52:39;13.30;99.90
20929;DHT22;21895;47.072;15.132;2023-05-07T01:55:06;13.30;99.90
20929;DHT22;21895;47.072;15.132;2023-05-07T01:57:33;13.20;99.90
20929;DHT22;21895;47.072;15.132;2023-05-07T01:59:59;13.10;99.90
20929;DHT22;21895;47.072;15.132;2023-05-07T02:02:26;13.10;99.90
20929;DHT22;21895;47.072;15.132;2023-05-07T02:04:53;13.00;99.90
20929;DHT22;21895;47.072;15.132;2023-05-07T02:07:19;13.00;99.90
20929;DHT22;21895;47.072;15.132;2023-05-07T02:09:46;13.00;99.90
20929;DHT22;21895;47.072;15.132;2023-05-07T02:12:12;12.90;99.90
20929;DHT22;21895;47.072;15.132;2023-05-07T02:14:39;12.90;99.90
20929;DHT22;21895;47.072;15.132;2023-05-07T02:17:05;13.00;99.90
20929;DHT22;21895;47.072;15.132;2023-05-07T02:19:32;13.00;99.90
20929;DHT22;21895;47.072;15.132;2023-05-07T02:22:01;12.80;99.90
20929;DHT22;21895;47.072;15.132;2023-05-07T02:24:28;12.70;99.90
20929;DHT22;21895;47.072;15.132;2023-05-07T02:26:54;12.80;99.90
20929;DHT22;21895;47.072;15.132;2023-05-07T02:29:21;12.80;99.90
20929;DHT22;21895;47.072;15.132;2023-05-07T02:31:47;12.80;99.90
20929;DHT22;21895;47.072;15.132;2023-05-07T02:34:19;12.70;99.90
20929;DHT22;21895;47.072;15.132;2023-05-07T02:36:45;12.70;99.90
20929;DHT22;21895;47.072;15.132;2023-05-07T02:39:12;12.80;99.90
20929;DHT22;21895;47.072;15.132;2023-05-07T02:41:39;12.80;99.90
20929;DHT22;21895;47.072;15.132;2023-05-07T02:44:06;12.70;99.90
20929;DHT22;21895;47.072;15.132;2023-05-07T02:46:32;12.50;99.90
20929;DHT22;21895;47.072;15.132;2023-05-07T02:48:59;12.40;99.90
20929;DHT22;21895;47.072;15.132;2023-05-07T02:51:26;12.30;99.90
20929;DHT22;21895;47.072;15.132;2023-05-07T02:53:53;12.30;99.90
20929;DHT22;21895;47.072;15.132;2023-05-07T02:56:19;12.30;99.90
20929;DHT22;21895;47.072;15.132;2023-05-07T02:58:46;12.30;99.90
20929;DHT22;21895;47.072;15.132;2023-05-07T03:01:13;12.20;99.90
20929;DHT22;21895;47.072;15.132;2023-05-07T03:03:40;12.00;99.90
20929;DHT22;21895;47.072;15.132;2023-05-07T03:06:07;11.90;99.90
20929;DHT22;21895;47.072;15.132;2023-05-07T03:08:33;11.80;99.90
20929;DHT22;21895;47.072;15.132;2023-05-07T03:11:00;11.80;99.90
20929;DHT22;21895;47.072;15.132;2023-05-07T03:13:27;11.90;99.90
20929;DHT22;21895;47.072;15.132;2023-05-07T03:15:53;11.90;99.90
20929;DHT22;21895;47.072;15.132;2023-05-07T03:18:20;11.90;99.90
20929;DHT22;21895;47.072;15.132;2023-05-07T03:20:48;11.90;99.90
20929;DHT22;21895;47.072;15.132;2023-05-07T03:23:15;12.00;99.90
20929;DHT22;21895;47.072;15.132;2023-05-07T03:25:41;12.00;99.90
20929;DHT22;21895;47.072;15.132;2023-05-07T03:28:08;12.00;99.90
20929;DHT22;21895;47.072;15.132;2023-05-07T03:30:34;11.90;99.90
20929;DHT22;21895;47.072;15.132;2023-05-07T03:33:01;11.90;99.90
20929;DHT22;21895;47.072;15.132;2023-05-07T03:35:28;11.90;99.90
20929;DHT22;21895;47.072;15.132;2023-05-07T03:37:54;11.90;99.90
20929;DHT22;21895;47.072;15.132;2023-05-07T03:40:20;11.90;99.90
20929;DHT22;21895;47.072;15.132;2023-05-07T03:42:47;12.00;99.90
20929;DHT22;21895;47.072;15.132;2023-05-07T03:45:13;11.90;99.90
20929;DHT22;21895;47.072;15.132;2023-05-07T03:47:40;12.00;99.90
20929;DHT22;21895;47.072;15.132;2023-05-07T03:50:07;12.00;99.90
20929;DHT22;21895;47.072;15.132;2023-05-07T03:52:34;12.00;99.90
20929;DHT22;21895;47.072;15.132;2023-05-07T03:55:01;12.10;99.90
20929;DHT22;21895;47.072;15.132;2023-05-07T03:57:27;12.00;99.90
20929;DHT22;21895;47.072;15.132;2023-05-07T03:59:53;12.00;99.90
20929;DHT22;21895;47.072;15.132;2023-05-07T04:02:20;12.00;99.90
20929;DHT22;21895;47.072;15.132;2023-05-07T04:04:48;12.00;99.90
20929;DHT22;21895;47.072;15.132;2023-05-07T04:07:15;12.10;99.90
20929;DHT22;21895;47.072;15.132;2023-05-07T04:09:42;12.20;99.90
20929;DHT22;21895;47.072;15.132;2023-05-07T04:12:08;12.20;99.90
20929;DHT22;21895;47.072;15.132;2023-05-07T04:14:35;12.20;99.90
20929;DHT22;21895;47.072;15.132;2023-05-07T04:17:01;12.20;99.90
20929;DHT22;21895;47.072;15.132;2023-05-07T04:19:28;12.40;99.90
20929;DHT22;21895;47.072;15.132;2023-05-07T04:21:57;12.50;99.90
20929;DHT22;21895;47.072;15.132;2023-05-07T04:24:24;12.50;99.90
20929;DHT22;21895;47.072;15.132;2023-05-07T04:26:50;12.40;99.90
20929;DHT22;21895;47.072;15.132;2023-05-07T04:29:17;12.40;99.90
20929;DHT22;21895;47.072;15.132;2023-05-07T04:31:43;12.50;99.90
20929;DHT22;21895;47.072;15.132;2023-05-07T04:34:11;12.50;99.90
20929;DHT22;21895;47.072;15.132;2023-05-07T04:36:38;12.50;99.90
20929;DHT22;21895;47.072;15.132;2023-05-07T04:39:04;12.40;99.90
20929;DHT22;21895;47.072;15.132;2023-05-07T04:41:31;12.30;99.90
20929;DHT22;21895;47.072;15.132;2023-05-07T04:43:59;12.30;99.90
20929;DHT22;21895;47.072;15.132;2023-05-07T04:46:26;12.50;99.90
20929;DHT22;21895;47.072;15.132;2023-05-07T04:48:52;12.70;99.90
20929;DHT22;21895;47.072;15.132;2023-05-07T04:51:19;13.00;99.90
20929;DHT22;21895;47.072;15.132;2023-05-07T04:53:46;13.20;99.90
20929;DHT22;21895;47.072;15.132;2023-05-07T04:56:12;13.50;99.90
20929;DHT22;21895;47.072;15.132;2023-05-07T04:58:39;13.60;99.90
20929;DHT22;21895;47.072;15.132;2023-05-07T05:01:05;13.70;99.90
20929;DHT22;21895;47.072;15.132;2023-05-07T05:03:32;13.70;99.90
20929;DHT22;21895;47.072;15.132;2023-05-07T05:05:59;13.80;99.90
20929;DHT22;21895;47.072;15.132;2023-05-07T05:08:25;13.90;99.90
20929;DHT22;21895;47.072;15.132;2023-05-07T05:10:52;14.10;99.90
20929;DHT22;21895;47.072;15.132;2023-05-07T05:13:18;14.20;99.90
20929;DHT22;21895;47.072;15.132;2023-05-07T05:15:45;14.10;99.90
20929;DHT22;21895;47.072;15.132;2023-05-07T05:18:12;14.00;99.90
20929;DHT22;21895;47.072;15.132;2023-05-07T05:20:38;14.10;99.90
20929;DHT22;21895;47.072;15.132;2023-05-07T05:23:05;14.20;99.90
20929;DHT22;21895;47.072;15.132;2023-05-07T05:25:32;14.50;99.90
20929;DHT22;21895;47.072;15.132;2023-05-07T05:27:58;14.80;99.90
20929;DHT22;21895;47.072;15.132;2023-05-07T05:30:24;15.10;99.90
20929;DHT22;21895;47.072;15.132;2023-05-07T05:32:51;15.10;99.90
20929;DHT22;21895;47.072;15.132;2023-05-07T05:35:18;15.00;99.90
20929;DHT22;21895;47.072;15.132;2023-05-07T05:37:44;15.30;99.90
20929;DHT22;21895;47.072;15.132;2023-05-07T05:40:11;15.50;99.90
20929;DHT22;21895;47.072;15.132;2023-05-07T05:42:38;15.80;99.90
20929;DHT22;21895;47.072;15.132;2023-05-07T05:45:05;16.10;99.90
20929;DHT22;21895;47.072;15.132;2023-05-07T05:47:32;16.30;99.90
20929;DHT22;21895;47.072;15.132;2023-05-07T05:49:59;16.60;99.90
20929;DHT22;21895;47.072;15.132;2023-05-07T05:52:25;16.70;99.90
20929;DHT22;21895;47.072;15.132;2023-05-07T05:54:53;16.60;99.90
20929;DHT22;21895;47.072;15.132;2023-05-07T05:57:20;16.50;99.90
20929;DHT22;21895;47.072;15.132;2023-05-07T05:59:46;16.30;99.90
20929;DHT22;21895;47.072;15.132;2023-05-07T06:02:13;16.50;99.90
20929;DHT22;21895;47.072;15.132;2023-05-07T06:04:40;16.90;99.90
20929;DHT22;21895;47.072;15.132;2023-05-07T06:07:06;17.20;99.90
20929;DHT22;21895;47.072;15.132;2023-05-07T06:09:33;17.30;99.90
20929;DHT22;21895;47.072;15.132;2023-05-07T06:11:59;17.40;99.90
20929;DHT22;21895;47.072;15.132;2023-05-07T06:14:26;17.60;99.90
20929;DHT22;21895;47.072;15.132;2023-05-07T06:16:53;17.90;99.90
20929;DHT22;21895;47.072;15.132;2023-05-07T06:19:19;18.00;99.90
20929;DHT22;21895;47.072;15.132;2023-05-07T06:21:49;18.20;99.90
20929;DHT22;21895;47.072;15.132;2023-05-07T06:24:16;18.40;99.90
20929;DHT22;21895;47.072;15.132;2023-05-07T06:26:42;18.60;99.90
20929;DHT22;21895;47.072;15.132;2023-05-07T06:29:09;18.80;99.90
20929;DHT22;21895;47.072;15.132;2023-05-07T06:31:35;18.80;99.90
20929;DHT22;21895;47.072;15.132;2023-05-07T06:34:02;19.00;99.90
20929;DHT22;21895;47.072;15.132;2023-05-07T06:36:28;19.20;99.90
20929;DHT22;21895;47.072;15.132;2023-05-07T06:38:55;19.20;99.90
20929;DHT22;21895;47.072;15.132;2023-05-07T06:41:21;19.30;99.90
20929;DHT22;21895;47.072;15.132;2023-05-07T06:43:48;19.40;99.90
20929;DHT22;21895;47.072;15.132;2023-05-07T06:46:15;19.50;99.90
20929;DHT22;21895;47.072;15.132;2023-05-07T06:48:42;19.60;99.90
20929;DHT22;21895;47.072;15.132;2023-05-07T06:51:08;19.50;99.90
20929;DHT22;21895;47.072;15.132;2023-05-07T06:53:35;19.80;99.90
20929;DHT22;21895;47.072;15.132;2023-05-07T06:56:02;19.90;99.90
20929;DHT22;21895;47.072;15.132;2023-05-07T06:58:28;19.80;99.90
20929;DHT22;21895;47.072;15.132;2023-05-07T07:00:54;19.80;99.90
20929;DHT22;21895;47.072;15.132;2023-05-07T07:03:21;20.20;99.90
20929;DHT22;21895;47.072;15.132;2023-05-07T07:05:50;20.30;99.90
20929;DHT22;21895;47.072;15.132;2023-05-07T07:08:18;20.30;99.90
20929;DHT22;21895;47.072;15.132;2023-05-07T07:10:44;20.40;99.90
20929;DHT22;21895;47.072;15.132;2023-05-07T07:13:10;20.50;99.90
20929;DHT22;21895;47.072;15.132;2023-05-07T07:15:37;20.50;99.90
20929;DHT22;21895;47.072;15.132;2023-05-07T07:18:04;20.60;99.90
20929;DHT22;21895;47.072;15.132;2023-05-07T07:20:31;20.70;99.90
20929;DHT22;21895;47.072;15.132;2023-05-07T07:22:57;20.60;99.90
20929;DHT22;21895;47.072;15.132;2023-05-07T07:25:24;20.90;99.90
20929;DHT22;21895;47.072;15.132;2023-05-07T07:27:51;21.10;99.90
20929;DHT22;21895;47.072;15.132;2023-05-07T07:30:17;21.10;99.90
20929;DHT22;21895;47.072;15.132;2023-05-07T07:32:44;21.10;99.90
20929;DHT22;21895;47.072;15.132;2023-05-07T07:35:10;21.30;98.90
20929;DHT22;21895;47.072;15.132;2023-05-07T07:37:37;21.20;99.80
20929;DHT22;21895;47.072;15.132;2023-05-07T07:40:04;21.50;99.30
20929;DHT22;21895;47.072;15.132;2023-05-07T07:42:31;21.30;99.50
20929;DHT22;21895;47.072;15.132;2023-05-07T07:44:57;21.50;99.20
20929;DHT22;21895;47.072;15.132;2023-05-07T07:47:24;21.70;97.90
20929;DHT22;21895;47.072;15.132;2023-05-07T07:49:50;21.60;97.70
20929;DHT22;21895;47.072;15.132;2023-05-07T07:52:18;21.50;98.10
20929;DHT22;21895;47.072;15.132;2023-05-07T07:54:45;21.50;97.60
20929;DHT22;21895;47.072;15.132;2023-05-07T07:57:11;21.70;97.60
20929;DHT22;21895;47.072;15.132;2023-05-07T07:59:38;21.80;97.70
20929;DHT22;21895;47.072;15.132;2023-05-07T08:02:06;21.80;97.00
20929;DHT22;21895;47.072;15.132;2023-05-07T08:04:32;21.90;96.70
20929;DHT22;21895;47.072;15.132;2023-05-07T08:06:59;22.00;96.20
20929;DHT22;21895;47.072;15.132;2023-05-07T08:09:25;22.10;96.60
20929;DHT22;21895;47.072;15.132;2023-05-07T08:11:53;22.10;95.40
20929;DHT22;21895;47.072;15.132;2023-05-07T08:14:19;22.00;96.40
20929;DHT22;21895;47.072;15.132;2023-05-07T08:16:46;22.00;95.70
20929;DHT22;21895;47.072;15.132;2023-05-07T08:19:12;22.00;95.60
20929;DHT22;21895;47.072;15.132;2023-05-07T08:21:39;21.80;96.40
20929;DHT22;21895;47.072;15.132;2023-05-07T08:24:06;22.00;96.00
20929;DHT22;21895;47.072;15.132;2023-05-07T08:26:33;22.20;96.30
20929;DHT22;21895;47.072;15.132;2023-05-07T08:29:00;22.40;95.90
20929;DHT22;21895;47.072;15.132;2023-05-07T08:31:26;22.60;94.50
20929;DHT22;21895;47.072;15.132;2023-05-07T08:33:53;22.60;94.70
20929;DHT22;21895;47.072;15.132;2023-05-07T08:36:19;22.70;94.30
20929;DHT22;21895;47.072;15.132;2023-05-07T08:38:46;22.80;94.00
20929;DHT22;21895;47.072;15.132;2023-05-07T08:41:12;22.80;94.70
20929;DHT22;21895;47.072;15.132;2023-05-07T08:43:41;22.90;94.10
20929;DHT22;21895;47.072;15.132;2023-05-07T08:46:09;23.10;94.30
20929;DHT22;21895;47.072;15.132;2023-05-07T08:48:39;23.10;94.70
20929;DHT22;21895;47.072;15.132;2023-05-07T08:51:06;23.10;94.20
20929;DHT22;21895;47.072;15.132;2023-05-07T08:53:33;23.20;95.10
20929;DHT22;21895;47.072;15.132;2023-05-07T08:55:59;23.20;94.10
20929;DHT22;21895;47.072;15.132;2023-05-07T08:58:27;23.20;94.10
20929;DHT22;21895;47.072;15.132;2023-05-07T09:00:54;23.10;93.80
20929;DHT22;21895;47.072;15.132;2023-05-07T09:03:20;22.70;93.30
20929;DHT22;21895;47.072;15.132;2023-05-07T09:05:47;22.50;95.10
20929;DHT22;21895;47.072;15.132;2023-05-07T09:08:15;22.80;94.50
20929;DHT22;21895;47.072;15.132;2023-05-07T09:10:42;23.20;92.70
20929;DHT22;21895;47.072;15.132;2023-05-07T09:13:08;23.20;93.60
20929;DHT22;21895;47.072;15.132;2023-05-07T09:15:36;23.40;92.60
20929;DHT22;21895;47.072;15.132;2023-05-07T09:18:03;23.50;93.70
20929;DHT22;21895;47.072;15.132;2023-05-07T09:20:32;23.90;93.00
20929;DHT22;21895;47.072;15.132;2023-05-07T09:22:59;23.90;92.80
20929;DHT22;21895;47.072;15.132;2023-05-07T09:25:32;23.90;92.10
20929;DHT22;21895;47.072;15.132;2023-05-07T09:28:01;24.00;91.10
20929;DHT22;21895;47.072;15.132;2023-05-07T09:30:33;23.90;92.00
20929;DHT22;21895;47.072;15.132;2023-05-07T09:33:02;23.70;91.60
20929;DHT22;21895;47.072;15.132;2023-05-07T09:35:30;23.40;92.30
20929;DHT22;21895;47.072;15.132;2023-05-07T09:37:58;23.20;92.30
20929;DHT22;21895;47.072;15.132;2023-05-07T09:40:30;22.80;92.60
20929;DHT22;21895;47.072;15.132;2023-05-07T09:43:09;22.70;92.70
20929;DHT22;21895;47.072;15.132;2023-05-07T09:45:41;22.80;93.50
20929;DHT22;21895;47.072;15.132;2023-05-07T09:48:08;23.00;93.10
20929;DHT22;21895;47.072;15.132;2023-05-07T09:50:36;23.20;92.90
20929;DHT22;21895;47.072;15.132;2023-05-07T09:53:14;23.20;92.30
20929;DHT22;21895;47.072;15.132;2023-05-07T09:55:43;23.40;93.20
20929;DHT22;21895;47.072;15.132;2023-05-07T09:58:12;23.70;94.00
20929;DHT22;21895;47.072;15.132;2023-05-07T10:00:41;24.00;91.70
20929;DHT22;21895;47.072;15.132;2023-05-07T10:03:09;24.10;91.90
20929;DHT22;21895;47.072;15.132;2023-05-07T10:05:37;24.30;91.20
20929;DHT22;21895;47.072;15.132;2023-05-07T10:08:05;24.50;91.10
20929;DHT22;21895;47.072;15.132;2023-05-07T10:10:33;24.10;90.60
20929;DHT22;21895;47.072;15.132;2023-05-07T10:13:02;23.80;90.80
20929;DHT22;21895;47.072;15.132;2023-05-07T10:15:31;23.50;91.00
20929;DHT22;21895;47.072;15.132;2023-05-07T10:17:58;23.20;91.90
20929;DHT22;21895;47.072;15.132;2023-05-07T10:20:26;23.40;92.50
20929;DHT22;21895;47.072;15.132;2023-05-07T10:22:56;23.70;91.50
20929;DHT22;21895;47.072;15.132;2023-05-07T10:25:33;24.00;91.80
20929;DHT22;21895;47.072;15.132;2023-05-07T10:28:06;24.20;92.20
20929;DHT22;21895;47.072;15.132;2023-05-07T10:35:09;24.70;90.50
20929;DHT22;21895;47.072;15.132;2023-05-07T10:37:40;25.00;91.60
20929;DHT22;21895;47.072;15.132;2023-05-07T10:40:09;25.00;91.10
20929;DHT22;21895;47.072;15.132;2023-05-07T10:42:36;24.90;90.10
20929;DHT22;21895;47.072;15.132;2023-05-07T10:45:15;24.80;90.70
20929;DHT22;21895;47.072;15.132;2023-05-07T10:48:16;24.90;90.50
20929;DHT22;21895;47.072;15.132;2023-05-07T10:53:33;24.80;90.40
20929;DHT22;21895;47.072;15.132;2023-05-07T10:56:24;24.00;90.90
20929;DHT22;21895;47.072;15.132;2023-05-07T10:58:51;23.70;91.40
20929;DHT22;21895;47.072;15.132;2023-05-07T11:01:56;23.50;92.20
20929;DHT22;21895;47.072;15.132;2023-05-07T11:04:24;23.30;92.50
20929;DHT22;21895;47.072;15.132;2023-05-07T11:08:55;23.20;92.30
20929;DHT22;21895;47.072;15.132;2023-05-07T11:11:47;23.60;92.10
20929;DHT22;21895;47.072;15.132;2023-05-07T11:17:21;23.60;91.90
20929;DHT22;21895;47.072;15.132;2023-05-07T11:19:52;23.70;92.30
20929;DHT22;21895;47.072;15.132;2023-05-07T11:24:11;24.00;92.10
20929;DHT22;21895;47.072;15.132;2023-05-07T11:26:56;24.30;92.00
20929;DHT22;21895;47.072;15.132;2023-05-07T11:29:24;24.50;91.20
20929;DHT22;21895;47.072;15.132;2023-05-07T11:31:52;24.00;91.40
20929;DHT22;21895;47.072;15.132;2023-05-07T11:34:24;23.90;92.20
20929;DHT22;21895;47.072;15.132;2023-05-07T11:36:52;24.00;92.10
20929;DHT22;21895;47.072;15.132;2023-05-07T11:39:26;23.80;92.20
20929;DHT22;21895;47.072;15.132;2023-05-07T11:41:54;23.90;91.70
20929;DHT22;21895;47.072;15.132;2023-05-07T11:44:21;24.10;92.10
20929;DHT22;21895;47.072;15.132;2023-05-07T11:46:48;24.40;91.80
20929;DHT22;21895;47.072;15.132;2023-05-07T11:49:15;24.50;91.60
20929;DHT22;21895;47.072;15.132;2023-05-07T11:51:41;24.70;91.20
20929;DHT22;21895;47.072;15.132;2023-05-07T11:54:09;24.70;90.40
20929;DHT22;21895;47.072;15.132;2023-05-07T11:56:37;24.70;90.80
20929;DHT22;21895;47.072;15.132;2023-05-07T11:59:04;24.60;90.70
20929;DHT22;21895;47.072;15.132;2023-05-07T12:01:31;24.70;90.60
20929;DHT22;21895;47.072;15.132;2023-05-07T12:03:58;24.70;91.30
20929;DHT22;21895;47.072;15.132;2023-05-07T12:06:24;25.00;91.00
20929;DHT22;21895;47.072;15.132;2023-05-07T12:08:51;25.00;90.60
20929;DHT22;21895;47.072;15.132;2023-05-07T12:11:23;24.90;91.00
20929;DHT22;21895;47.072;15.132;2023-05-07T12:13:51;24.70;91.00
20929;DHT22;21895;47.072;15.132;2023-05-07T12:16:18;24.60;91.00
20929;DHT22;21895;47.072;15.132;2023-05-07T12:18:45;24.70;91.90
20929;DHT22;21895;47.072;15.132;2023-05-07T12:21:12;24.70;91.20
20929;DHT22;21895;47.072;15.132;2023-05-07T12:23:40;24.60;91.70
20929;DHT22;21895;47.072;15.132;2023-05-07T12:26:06;24.30;91.80
20929;DHT22;21895;47.072;15.132;2023-05-07T12:28:38;24.00;91.80
20929;DHT22;21895;47.072;15.132;2023-05-07T12:31:06;23.80;91.80
20929;DHT22;21895;47.072;15.132;2023-05-07T12:33:34;23.70;92.40
20929;DHT22;21895;47.072;15.132;2023-05-07T12:36:06;23.60;91.90
20929;DHT22;21895;47.072;15.132;2023-05-07T12:38:40;23.40;92.10
20929;DHT22;21895;47.072;15.132;2023-05-07T12:41:08;23.10;92.60
20929;DHT22;21895;47.072;15.132;2023-05-07T12:43:36;22.80;93.00
20929;DHT22;21895;47.072;15.132;2023-05-07T12:46:07;22.50;93.40
20929;DHT22;21895;47.072;15.132;2023-05-07T12:48:35;22.40;93.40
20929;DHT22;21895;47.072;15.132;2023-05-07T12:51:05;22.20;94.00
20929;DHT22;21895;47.072;15.132;2023-05-07T12:53:32;22.00;93.80
20929;DHT22;21895;47.072;15.132;2023-05-07T12:55:59;21.90;94.70
20929;DHT22;21895;47.072;15.132;2023-05-07T12:58:30;21.90;94.50
20929;DHT22;21895;47.072;15.132;2023-05-07T13:01:01;21.70;95.00
20929;DHT22;21895;47.072;15.132;2023-05-07T13:03:35;21.10;96.00
20929;DHT22;21895;47.072;15.132;2023-05-07T13:06:08;20.50;96.20
20929;DHT22;21895;47.072;15.132;2023-05-07T13:08:37;20.10;96.80
20929;DHT22;21895;47.072;15.132;2023-05-07T13:11:10;19.90;97.60
20929;DHT22;21895;47.072;15.132;2023-05-07T13:13:39;19.70;97.50
20929;DHT22;21895;47.072;15.132;2023-05-07T13:16:09;19.70;96.60
20929;DHT22;21895;47.072;15.132;2023-05-07T13:18:38;19.40;96.70
20929;DHT22;21895;47.072;15.132;2023-05-07T13:21:06;19.20;98.20
20929;DHT22;21895;47.072;15.132;2023-05-07T13:23:34;19.10;98.70
20929;DHT22;21895;47.072;15.132;2023-05-07T13:26:00;19.00;99.10
20929;DHT22;21895;47.072;15.132;2023-05-07T13:28:34;18.90;99.40
20929;DHT22;21895;47.072;15.132;2023-05-07T13:31:00;18.70;99.90
20929;DHT22;21895;47.072;15.132;2023-05-07T13:33:27;18.70;99.90
20929;DHT22;21895;47.072;15.132;2023-05-07T13:35:54;18.80;99.90
20929;DHT22;21895;47.072;15.132;2023-05-07T13:38:22;18.90;99.90
20929;DHT22;21895;47.072;15.132;2023-05-07T13:40:50;18.80;99.90
20929;DHT22;21895;47.072;15.132;2023-05-07T13:43:17;18.70;99.90
20929;DHT22;21895;47.072;15.132;2023-05-07T13:45:44;18.70;99.90
20929;DHT22;21895;47.072;15.132;2023-05-07T13:48:11;18.60;99.90
20929;DHT22;21895;47.072;15.132;2023-05-07T13:50:37;18.40;99.90
20929;DHT22;21895;47.072;15.132;2023-05-07T13:53:04;18.20;99.90
20929;DHT22;21895;47.072;15.132;2023-05-07T13:55:30;18.00;99.90
20929;DHT22;21895;47.072;15.132;2023-05-07T13:58:01;18.00;99.90
20929;DHT22;21895;47.072;15.132;2023-05-07T14:00:32;18.00;99.90
20929;DHT22;21895;47.072;15.132;2023-05-07T14:02:59;17.90;99.90
20929;DHT22;21895;47.072;15.132;2023-05-07T14:05:26;17.90;99.90
20929;DHT22;21895;47.072;15.132;2023-05-07T14:07:57;17.90;99.90
20929;DHT22;21895;47.072;15.132;2023-05-07T14:10:24;17.70;99.90
20929;DHT22;21895;47.072;15.132;2023-05-07T14:12:50;17.60;99.90
20929;DHT22;21895;47.072;15.132;2023-05-07T14:15:18;17.70;99.90
20929;DHT22;21895;47.072;15.132;2023-05-07T14:17:45;17.60;99.90
20929;DHT22;21895;47.072;15.132;2023-05-07T14:20:12;17.50;99.90
20929;DHT22;21895;47.072;15.132;2023-05-07T14:22:39;17.40;99.90
20929;DHT22;21895;47.072;15.132;2023-05-07T14:25:07;17.40;99.90
20929;DHT22;21895;47.072;15.132;2023-05-07T14:27:35;17.50;99.90
20929;DHT22;21895;47.072;15.132;2023-05-07T14:30:01;17.50;99.90
20929;DHT22;21895;47.072;15.132;2023-05-07T14:32:28;17.50;99.90
20929;DHT22;21895;47.072;15.132;2023-05-07T14:34:55;17.60;99.90
20929;DHT22;21895;47.072;15.132;2023-05-07T14:37:21;17.70;99.90
20929;DHT22;21895;47.072;15.132;2023-05-07T14:39:48;17.70;99.90
20929;DHT22;21895;47.072;15.132;2023-05-07T14:42:17;17.70;99.90
20929;DHT22;21895;47.072;15.132;2023-05-07T14:44:44;17.70;99.90
20929;DHT22;21895;47.072;15.132;2023-05-07T14:47:11;17.70;99.90
20929;DHT22;21895;47.072;15.132;2023-05-07T14:49:38;17.80;99.90
20929;DHT22;21895;47.072;15.132;2023-05-07T14:52:04;18.00;99.90
20929;DHT22;21895;47.072;15.132;2023-05-07T14:54:34;18.10;99.90
20929;DHT22;21895;47.072;15.132;2023-05-07T14:57:05;18.10;99.90
20929;DHT22;21895;47.072;15.132;2023-05-07T14:59:32;18.20;99.90
20929;DHT22;21895;47.072;15.132;2023-05-07T15:01:59;18.30;99.90
20929;DHT22;21895;47.072;15.132;2023-05-07T15:04:27;18.30;99.90
20929;DHT22;21895;47.072;15.132;2023-05-07T15:06:54;18.20;99.90
20929;DHT22;21895;47.072;15.132;2023-05-07T15:09:22;18.00;99.90
20929;DHT22;21895;47.072;15.132;2023-05-07T15:11:48;17.80;99.90
20929;DHT22;21895;47.072;15.132;2023-05-07T15:14:15;17.70;99.90
20929;DHT22;21895;47.072;15.132;2023-05-07T15:16:41;17.60;99.90
20929;DHT22;21895;47.072;15.132;2023-05-07T15:19:08;17.50;99.90
20929;DHT22;21895;47.072;15.132;2023-05-07T15:21:34;17.60;99.90
20929;DHT22;21895;47.072;15.132;2023-05-07T15:24:02;17.60;99.90
20929;DHT22;21895;47.072;15.132;2023-05-07T15:26:28;17.60;99.90
20929;DHT22;21895;47.072;15.132;2023-05-07T15:28:55;17.70;99.90
20929;DHT22;21895;47.072;15.132;2023-05-07T15:31:24;17.60;99.90
20929;DHT22;21895;47.072;15.132;2023-05-07T15:33:50;17.70;99.90